sensor_id;sensor_type;location;lat;lon;timestamp;temperature;humidity
23301;DHT22;11819;51.394;12.340;2023-01-01T00:01:24;15.50;67.80
23301;DHT22;11819;51.394;12.340;2023-01-01T00:03:51;15.50;67.70
23301;DHT22;11819;51.394;12.340;2023-01-01T00:06:19;15.50;67.70
23301;DHT22;11819;51.394;12.340;2023-01-01T00:08:46;15.50;67.80
23301;DHT22;11819;51.394;12.340;2023-01-01T00:11:12;15.40;67.50
23301;DHT22;11819;51.394;12.340;2023-01-01T00:13:40;15.40;67.40
23301;DHT22;11819;51.394;12.340;2023-01-01T00:16:11;15.50;67.40
23301;DHT22;11819;51.394;12.340;2023-01-01T00:18:38;15.40;67.10
23301;DHT22;11819;51.394;12.340;2023-01-01T00:21:11;15.50;66.70
23301;DHT22;11819;51.394;12.340;2023-01-01T00:23:37;15.50;66.40
23301;DHT22;11819;51.394;12.340;2023-01-01T00:26:12;15.50;66.30
23301;DHT22;11819;51.394;12.340;2023-01-01T00:28:38;15.50;65.90
23301;DHT22;11819;51.394;12.340;2023-01-01T00:31:08;15.60;65.80
23301;DHT22;11819;51.394;12.340;2023-01-01T00:33:34;15.60;65.70
23301;DHT22;11819;51.394;12.340;2023-01-01T00:36:13;15.60;65.60
23301;DHT22;11819;51.394;12.340;2023-01-01T00:38:50;15.60;65.20
23301;DHT22;11819;51.394;12.340;2023-01-01T00:41:36;15.60;65.20
23301;DHT22;11819;51.394;12.340;2023-01-01T00:44:01;15.70;65.10
23301;DHT22;11819;51.394;12.340;2023-01-01T00:46:27;15.70;65.10
23301;DHT22;11819;51.394;12.340;2023-01-01T00:48:53;15.70;65.00
23301;DHT22;11819;51.394;12.340;2023-01-01T00:51:20;15.70;65.10
23301;DHT22;11819;51.394;12.340;2023-01-01T00:53:45;15.70;65.00
23301;DHT22;11819;51.394;12.340;2023-01-01T00:56:11;15.70;65.00
23301;DHT22;11819;51.394;12.340;2023-01-01T00:58:37;15.70;65.10
23301;DHT22;11819;51.394;12.340;2023-01-01T01:01:02;15.70;65.30
23301;DHT22;11819;51.394;12.340;2023-01-01T01:03:28;15.60;65.20
23301;DHT22;11819;51.394;12.340;2023-01-01T01:05:58;15.60;65.30
23301;DHT22;11819;51.394;12.340;2023-01-01T01:08:25;15.60;65.40
23301;DHT22;11819;51.394;12.340;2023-01-01T01:10:52;15.60;65.20
23301;DHT22;11819;51.394;12.340;2023-01-01T01:13:17;15.70;65.30
23301;DHT22;11819;51.394;12.340;2023-01-01T01:15:44;15.60;65.40
23301;DHT22;11819;51.394;12.340;2023-01-01T01:18:10;15.60;65.70
23301;DHT22;11819;51.394;12.340;2023-01-01T01:20:36;15.60;65.70
23301;DHT22;11819;51.394;12.340;2023-01-01T01:23:02;15.60;66.80
23301;DHT22;11819;51.394;12.340;2023-01-01T01:25:27;15.50;66.20
23301;DHT22;11819;51.394;12.340;2023-01-01T01:27:53;15.50;66.40
23301;DHT22;11819;51.394;12.340;2023-01-01T01:30:18;15.40;66.60
23301;DHT22;11819;51.394;12.340;2023-01-01T01:32:44;15.40;66.90
23301;DHT22;11819;51.394;12.340;2023-01-01T01:35:10;15.30;67.10
23301;DHT22;11819;51.394;12.340;2023-01-01T01:37:36;15.30;67.50
23301;DHT22;11819;51.394;12.340;2023-01-01T01:40:01;15.20;67.60
23301;DHT22;11819;51.394;12.340;2023-01-01T01:42:27;15.20;67.70
23301;DHT22;11819;51.394;12.340;2023-01-01T01:45:00;15.20;68.70
23301;DHT22;11819;51.394;12.340;2023-01-01T01:52:35;15.20;67.70
23301;DHT22;11819;51.394;12.340;2023-01-01T01:55:03;15.20;67.50
23301;DHT22;11819;51.394;12.340;2023-01-01T01:57:30;15.30;67.10
23301;DHT22;11819;51.394;12.340;2023-01-01T02:00:00;15.30;66.90
23301;DHT22;11819;51.394;12.340;2023-01-01T02:02:34;15.30;66.70
23301;DHT22;11819;51.394;12.340;2023-01-01T02:05:02;15.30;66.50
23301;DHT22;11819;51.394;12.340;2023-01-01T02:07:31;15.30;65.90
23301;DHT22;11819;51.394;12.340;2023-01-01T02:10:00;15.40;65.50
23301;DHT22;11819;51.394;12.340;2023-01-01T02:12:27;15.40;65.30
23301;DHT22;11819;51.394;12.340;2023-01-01T02:14:53;15.40;65.30
23301;DHT22;11819;51.394;12.340;2023-01-01T02:17:30;15.40;65.40
23301;DHT22;11819;51.394;12.340;2023-01-01T02:25:51;15.30;66.30
23301;DHT22;11819;51.394;12.340;2023-01-01T02:28:13;15.30;66.60
23301;DHT22;11819;51.394;12.340;2023-01-01T02:30:43;15.20;67.10
23301;DHT22;11819;51.394;12.340;2023-01-01T02:33:17;15.20;67.50
23301;DHT22;11819;51.394;12.340;2023-01-01T02:36:02;15.10;67.90
23301;DHT22;11819;51.394;12.340;2023-01-01T02:38:33;15.10;68.20
23301;DHT22;11819;51.394;12.340;2023-01-01T02:41:11;15.10;68.70
23301;DHT22;11819;51.394;12.340;2023-01-01T02:43:41;15.00;68.70
23301;DHT22;11819;51.394;12.340;2023-01-01T02:46:08;15.00;69.00
23301;DHT22;11819;51.394;12.340;2023-01-01T02:48:46;14.90;69.30
23301;DHT22;11819;51.394;12.340;2023-01-01T02:51:28;14.90;69.60
23301;DHT22;11819;51.394;12.340;2023-01-01T03:08:07;14.60;71.50
23301;DHT22;11819;51.394;12.340;2023-01-01T03:13:16;14.50;72.00
23301;DHT22;11819;51.394;12.340;2023-01-01T03:15:46;14.50;72.30
23301;DHT22;11819;51.394;12.340;2023-01-01T03:18:24;14.40;72.70
23301;DHT22;11819;51.394;12.340;2023-01-01T03:20:53;14.40;73.10
23301;DHT22;11819;51.394;12.340;2023-01-01T03:23:25;14.30;73.30
23301;DHT22;11819;51.394;12.340;2023-01-01T03:25:56;14.30;73.60
23301;DHT22;11819;51.394;12.340;2023-01-01T03:28:28;14.20;73.80
23301;DHT22;11819;51.394;12.340;2023-01-01T03:30:59;14.10;74.10
23301;DHT22;11819;51.394;12.340;2023-01-01T03:33:38;14.10;74.40
23301;DHT22;11819;51.394;12.340;2023-01-01T03:36:09;14.10;74.60
23301;DHT22;11819;51.394;12.340;2023-01-01T03:38:54;14.00;74.90
23301;DHT22;11819;51.394;12.340;2023-01-01T03:41:45;14.00;75.10
23301;DHT22;11819;51.394;12.340;2023-01-01T03:44:24;13.90;75.20
23301;DHT22;11819;51.394;12.340;2023-01-01T03:46:52;13.90;75.50
23301;DHT22;11819;51.394;12.340;2023-01-01T03:49:18;13.90;75.60
23301;DHT22;11819;51.394;12.340;2023-01-01T03:54:43;13.80;75.70
23301;DHT22;11819;51.394;12.340;2023-01-01T03:57:43;13.80;75.70
23301;DHT22;11819;51.394;12.340;2023-01-01T04:00:12;13.80;75.80
23301;DHT22;11819;51.394;12.340;2023-01-01T04:02:59;13.80;75.80
23301;DHT22;11819;51.394;12.340;2023-01-01T04:05:27;13.80;75.90
23301;DHT22;11819;51.394;12.340;2023-01-01T04:07:53;13.70;75.90
23301;DHT22;11819;51.394;12.340;2023-01-01T04:10:20;13.70;75.90
23301;DHT22;11819;51.394;12.340;2023-01-01T04:12:52;13.70;75.90
23301;DHT22;11819;51.394;12.340;2023-01-01T04:15:21;13.80;75.90
23301;DHT22;11819;51.394;12.340;2023-01-01T04:17:47;13.70;75.90
23301;DHT22;11819;51.394;12.340;2023-01-01T04:20:13;13.70;75.90
23301;DHT22;11819;51.394;12.340;2023-01-01T04:22:39;13.70;76.00
23301;DHT22;11819;51.394;12.340;2023-01-01T04:25:05;13.70;76.00
23301;DHT22;11819;51.394;12.340;2023-01-01T04:27:31;13.70;76.90
23301;DHT22;11819;51.394;12.340;2023-01-01T04:29:58;13.70;76.10
23301;DHT22;11819;51.394;12.340;2023-01-01T04:32:25;13.80;76.00
23301;DHT22;11819;51.394;12.340;2023-01-01T04:34:51;13.80;75.80
23301;DHT22;11819;51.394;12.340;2023-01-01T04:37:16;13.80;75.70
23301;DHT22;11819;51.394;12.340;2023-01-01T04:39:42;13.80;75.70
23301;DHT22;11819;51.394;12.340;2023-01-01T04:42:08;13.80;75.70
23301;DHT22;11819;51.394;12.340;2023-01-01T04:44:34;13.80;75.70
23301;DHT22;11819;51.394;12.340;2023-01-01T04:47:00;13.80;75.60
23301;DHT22;11819;51.394;12.340;2023-01-01T04:49:25;13.80;75.70
23301;DHT22;11819;51.394;12.340;2023-01-01T04:51:53;13.80;75.70
23301;DHT22;11819;51.394;12.340;2023-01-01T04:54:18;13.80;75.70
23301;DHT22;11819;51.394;12.340;2023-01-01T04:56:44;13.80;75.70
23301;DHT22;11819;51.394;12.340;2023-01-01T04:59:09;13.80;75.80
23301;DHT22;11819;51.394;12.340;2023-01-01T05:01:35;13.70;75.90
23301;DHT22;11819;51.394;12.340;2023-01-01T05:04:02;13.70;75.90
23301;DHT22;11819;51.394;12.340;2023-01-01T05:06:27;13.70;76.00
23301;DHT22;11819;51.394;12.340;2023-01-01T05:08:54;13.70;76.10
23301;DHT22;11819;51.394;12.340;2023-01-01T05:11:30;13.60;76.20
23301;DHT22;11819;51.394;12.340;2023-01-01T05:13:58;13.60;76.30
23301;DHT22;11819;51.394;12.340;2023-01-01T05:16:27;13.60;76.40
23301;DHT22;11819;51.394;12.340;2023-01-01T05:18:53;13.50;76.50
23301;DHT22;11819;51.394;12.340;2023-01-01T05:21:22;13.50;76.70
23301;DHT22;11819;51.394;12.340;2023-01-01T05:23:48;13.50;76.80
23301;DHT22;11819;51.394;12.340;2023-01-01T05:26:17;13.50;76.80
23301;DHT22;11819;51.394;12.340;2023-01-01T05:28:45;13.50;76.90
23301;DHT22;11819;51.394;12.340;2023-01-01T05:31:13;13.50;77.10
23301;DHT22;11819;51.394;12.340;2023-01-01T05:33:40;13.40;77.20
23301;DHT22;11819;51.394;12.340;2023-01-01T05:36:14;13.40;77.30
23301;DHT22;11819;51.394;12.340;2023-01-01T05:38:41;13.40;77.20
23301;DHT22;11819;51.394;12.340;2023-01-01T05:41:08;13.40;77.40
23301;DHT22;11819;51.394;12.340;2023-01-01T05:43:35;13.40;77.40
23301;DHT22;11819;51.394;12.340;2023-01-01T05:46:02;13.40;77.40
23301;DHT22;11819;51.394;12.340;2023-01-01T05:48:28;13.40;77.50
23301;DHT22;11819;51.394;12.340;2023-01-01T05:51:03;13.40;77.50
23301;DHT22;11819;51.394;12.340;2023-01-01T05:53:30;13.30;77.50
23301;DHT22;11819;51.394;12.340;2023-01-01T05:55:56;13.30;77.50
23301;DHT22;11819;51.394;12.340;2023-01-01T05:58:22;13.30;77.50
23301;DHT22;11819;51.394;12.340;2023-01-01T06:00:49;13.30;77.60
23301;DHT22;11819;51.394;12.340;2023-01-01T06:03:15;13.30;77.60
23301;DHT22;11819;51.394;12.340;2023-01-01T06:05:42;13.30;77.50
23301;DHT22;11819;51.394;12.340;2023-01-01T06:08:07;13.40;77.50
23301;DHT22;11819;51.394;12.340;2023-01-01T06:10:33;13.40;77.40
23301;DHT22;11819;51.394;12.340;2023-01-01T06:12:58;13.40;77.30
23301;DHT22;11819;51.394;12.340;2023-01-01T06:15:25;13.40;77.20
23301;DHT22;11819;51.394;12.340;2023-01-01T06:17:51;13.40;77.10
23301;DHT22;11819;51.394;12.340;2023-01-01T06:20:17;13.50;77.00
23301;DHT22;11819;51.394;12.340;2023-01-01T06:22:42;13.50;77.00
23301;DHT22;11819;51.394;12.340;2023-01-01T06:25:10;13.40;76.90
23301;DHT22;11819;51.394;12.340;2023-01-01T06:27:37;13.40;76.80
23301;DHT22;11819;51.394;12.340;2023-01-01T06:30:04;13.40;76.80
23301;DHT22;11819;51.394;12.340;2023-01-01T06:32:30;13.40;76.60
23301;DHT22;11819;51.394;12.340;2023-01-01T06:34:56;13.50;76.60
23301;DHT22;11819;51.394;12.340;2023-01-01T06:37:21;13.50;76.60
23301;DHT22;11819;51.394;12.340;2023-01-01T06:39:47;13.50;76.50
23301;DHT22;11819;51.394;12.340;2023-01-01T06:42:13;13.50;76.40
23301;DHT22;11819;51.394;12.340;2023-01-01T06:44:39;13.50;76.50
23301;DHT22;11819;51.394;12.340;2023-01-01T06:47:04;13.50;76.40
23301;DHT22;11819;51.394;12.340;2023-01-01T06:49:30;13.50;76.40
23301;DHT22;11819;51.394;12.340;2023-01-01T06:51:56;13.50;76.30
23301;DHT22;11819;51.394;12.340;2023-01-01T06:54:21;13.50;76.20
23301;DHT22;11819;51.394;12.340;2023-01-01T06:56:47;13.50;76.00
23301;DHT22;11819;51.394;12.340;2023-01-01T06:59:15;13.50;75.90
23301;DHT22;11819;51.394;12.340;2023-01-01T07:01:41;13.50;75.80
23301;DHT22;11819;51.394;12.340;2023-01-01T07:04:10;13.50;75.80
23301;DHT22;11819;51.394;12.340;2023-01-01T07:06:37;13.50;75.80
23301;DHT22;11819;51.394;12.340;2023-01-01T07:09:05;13.50;75.70
23301;DHT22;11819;51.394;12.340;2023-01-01T07:11:32;13.50;75.70
23301;DHT22;11819;51.394;12.340;2023-01-01T07:14:00;13.50;75.70
23301;DHT22;11819;51.394;12.340;2023-01-01T07:16:27;13.60;75.60
23301;DHT22;11819;51.394;12.340;2023-01-01T07:18:53;13.60;75.50
23301;DHT22;11819;51.394;12.340;2023-01-01T07:21:30;13.60;75.40
23301;DHT22;11819;51.394;12.340;2023-01-01T07:24:01;13.70;75.40
23301;DHT22;11819;51.394;12.340;2023-01-01T07:26:28;13.70;75.30
23301;DHT22;11819;51.394;12.340;2023-01-01T07:28:54;13.70;75.20
23301;DHT22;11819;51.394;12.340;2023-01-01T07:31:19;13.70;75.30
23301;DHT22;11819;51.394;12.340;2023-01-01T07:33:45;13.70;75.30
23301;DHT22;11819;51.394;12.340;2023-01-01T07:36:11;13.70;75.40
23301;DHT22;11819;51.394;12.340;2023-01-01T07:38:37;13.70;75.40
23301;DHT22;11819;51.394;12.340;2023-01-01T07:41:02;13.70;75.30
23301;DHT22;11819;51.394;12.340;2023-01-01T07:43:28;13.80;75.20
23301;DHT22;11819;51.394;12.340;2023-01-01T07:45:54;13.80;75.10
23301;DHT22;11819;51.394;12.340;2023-01-01T07:48:20;13.80;75.00
23301;DHT22;11819;51.394;12.340;2023-01-01T07:50:45;13.80;74.90
23301;DHT22;11819;51.394;12.340;2023-01-01T07:53:11;13.90;74.90
23301;DHT22;11819;51.394;12.340;2023-01-01T07:55:36;13.90;74.80
23301;DHT22;11819;51.394;12.340;2023-01-01T07:58:03;13.90;74.70
23301;DHT22;11819;51.394;12.340;2023-01-01T08:00:28;13.90;74.60
23301;DHT22;11819;51.394;12.340;2023-01-01T08:02:54;13.90;74.50
23301;DHT22;11819;51.394;12.340;2023-01-01T08:05:20;14.00;74.40
23301;DHT22;11819;51.394;12.340;2023-01-01T08:07:47;14.00;74.20
23301;DHT22;11819;51.394;12.340;2023-01-01T08:10:13;14.00;74.20
23301;DHT22;11819;51.394;12.340;2023-01-01T08:12:39;14.00;74.10
23301;DHT22;11819;51.394;12.340;2023-01-01T08:15:05;14.00;74.10
23301;DHT22;11819;51.394;12.340;2023-01-01T08:17:32;14.00;74.00
23301;DHT22;11819;51.394;12.340;2023-01-01T08:19:58;14.10;74.00
23301;DHT22;11819;51.394;12.340;2023-01-01T08:22:24;14.10;74.00
23301;DHT22;11819;51.394;12.340;2023-01-01T08:24:49;14.10;73.80
23301;DHT22;11819;51.394;12.340;2023-01-01T08:27:15;14.10;73.90
23301;DHT22;11819;51.394;12.340;2023-01-01T08:29:42;14.10;73.80
23301;DHT22;11819;51.394;12.340;2023-01-01T08:32:08;14.10;73.90
23301;DHT22;11819;51.394;12.340;2023-01-01T08:34:34;14.10;73.70
23301;DHT22;11819;51.394;12.340;2023-01-01T08:37:02;14.10;73.70
23301;DHT22;11819;51.394;12.340;2023-01-01T08:39:28;14.10;73.60
23301;DHT22;11819;51.394;12.340;2023-01-01T08:41:54;14.20;73.50
23301;DHT22;11819;51.394;12.340;2023-01-01T08:44:19;14.20;73.50
23301;DHT22;11819;51.394;12.340;2023-01-01T08:46:45;14.20;73.30
23301;DHT22;11819;51.394;12.340;2023-01-01T08:49:11;14.20;73.40
23301;DHT22;11819;51.394;12.340;2023-01-01T08:51:36;14.20;73.50
23301;DHT22;11819;51.394;12.340;2023-01-01T08:54:02;14.20;73.50
23301;DHT22;11819;51.394;12.340;2023-01-01T08:56:28;14.20;73.60
23301;DHT22;11819;51.394;12.340;2023-01-01T08:58:55;14.20;73.60
23301;DHT22;11819;51.394;12.340;2023-01-01T09:01:22;14.20;73.70
23301;DHT22;11819;51.394;12.340;2023-01-01T09:03:50;14.20;74.50
23301;DHT22;11819;51.394;12.340;2023-01-01T09:06:16;14.20;73.60
23301;DHT22;11819;51.394;12.340;2023-01-01T09:08:41;14.30;73.60
23301;DHT22;11819;51.394;12.340;2023-01-01T09:11:14;14.30;73.40
23301;DHT22;11819;51.394;12.340;2023-01-01T09:13:42;14.30;73.30
23301;DHT22;11819;51.394;12.340;2023-01-01T09:16:08;14.30;72.90
23301;DHT22;11819;51.394;12.340;2023-01-01T09:18:33;14.40;72.80
23301;DHT22;11819;51.394;12.340;2023-01-01T09:20:59;14.40;72.70
23301;DHT22;11819;51.394;12.340;2023-01-01T09:23:25;14.50;72.50
23301;DHT22;11819;51.394;12.340;2023-01-01T09:25:52;14.50;72.50
23301;DHT22;11819;51.394;12.340;2023-01-01T09:28:17;14.50;72.20
23301;DHT22;11819;51.394;12.340;2023-01-01T09:30:43;14.60;72.20
23301;DHT22;11819;51.394;12.340;2023-01-01T09:33:09;14.60;72.10
23301;DHT22;11819;51.394;12.340;2023-01-01T09:35:37;14.60;71.90
23301;DHT22;11819;51.394;12.340;2023-01-01T09:38:04;14.70;71.90
23301;DHT22;11819;51.394;12.340;2023-01-01T09:40:53;14.70;71.60
23301;DHT22;11819;51.394;12.340;2023-01-01T09:43:50;14.80;71.40
23301;DHT22;11819;51.394;12.340;2023-01-01T09:46:16;14.80;71.30
23301;DHT22;11819;51.394;12.340;2023-01-01T09:48:58;14.80;71.30
23301;DHT22;11819;51.394;12.340;2023-01-01T09:51:29;14.80;71.40
23301;DHT22;11819;51.394;12.340;2023-01-01T09:54:32;14.90;71.30
23301;DHT22;11819;51.394;12.340;2023-01-01T09:57:05;14.90;71.30
23301;DHT22;11819;51.394;12.340;2023-01-01T09:59:37;14.90;71.30
23301;DHT22;11819;51.394;12.340;2023-01-01T10:03:05;14.90;71.30
23301;DHT22;11819;51.394;12.340;2023-01-01T10:05:30;14.90;71.40
23301;DHT22;11819;51.394;12.340;2023-01-01T10:13:38;14.90;71.00
23301;DHT22;11819;51.394;12.340;2023-01-01T10:16:33;14.90;71.00
23301;DHT22;11819;51.394;12.340;2023-01-01T10:19:16;14.90;71.00
23301;DHT22;11819;51.394;12.340;2023-01-01T10:21:44;14.90;72.00
23301;DHT22;11819;51.394;12.340;2023-01-01T10:24:42;14.90;71.10
23301;DHT22;11819;51.394;12.340;2023-01-01T10:27:29;15.00;70.90
23301;DHT22;11819;51.394;12.340;2023-01-01T10:29:56;15.00;70.80
23301;DHT22;11819;51.394;12.340;2023-01-01T10:32:30;15.00;70.50
23301;DHT22;11819;51.394;12.340;2023-01-01T10:34:57;15.10;70.50
23301;DHT22;11819;51.394;12.340;2023-01-01T10:37:26;15.20;70.60
23301;DHT22;11819;51.394;12.340;2023-01-01T10:39:54;15.20;71.50
23301;DHT22;11819;51.394;12.340;2023-01-01T10:42:20;15.20;70.60
23301;DHT22;11819;51.394;12.340;2023-01-01T10:44:46;15.20;70.80
23301;DHT22;11819;51.394;12.340;2023-01-01T10:47:27;15.20;70.90
23301;DHT22;11819;51.394;12.340;2023-01-01T10:50:01;15.20;70.90
23301;DHT22;11819;51.394;12.340;2023-01-01T10:52:37;15.20;70.90
23301;DHT22;11819;51.394;12.340;2023-01-01T10:55:04;15.20;71.80
23301;DHT22;11819;51.394;12.340;2023-01-01T10:57:33;15.20;71.20
23301;DHT22;11819;51.394;12.340;2023-01-01T11:00:28;15.20;71.10
23301;DHT22;11819;51.394;12.340;2023-01-01T11:03:19;15.20;71.10
23301;DHT22;11819;51.394;12.340;2023-01-01T11:06:08;15.20;71.20
23301;DHT22;11819;51.394;12.340;2023-01-01T11:08:37;15.20;71.30
23301;DHT22;11819;51.394;12.340;2023-01-01T11:11:03;15.20;71.30
23301;DHT22;11819;51.394;12.340;2023-01-01T11:13:30;15.20;71.30
23301;DHT22;11819;51.394;12.340;2023-01-01T11:15:56;15.20;71.30
23301;DHT22;11819;51.394;12.340;2023-01-01T11:18:28;15.20;71.30
23301;DHT22;11819;51.394;12.340;2023-01-01T11:21:04;15.20;71.30
23301;DHT22;11819;51.394;12.340;2023-01-01T11:23:36;15.20;71.20
23301;DHT22;11819;51.394;12.340;2023-01-01T11:26:18;15.20;71.20
23301;DHT22;11819;51.394;12.340;2023-01-01T11:29:13;15.30;71.30
23301;DHT22;11819;51.394;12.340;2023-01-01T11:31:44;15.30;71.20
23301;DHT22;11819;51.394;12.340;2023-01-01T11:37:11;15.30;71.30
23301;DHT22;11819;51.394;12.340;2023-01-01T11:39:43;15.30;70.90
23301;DHT22;11819;51.394;12.340;2023-01-01T11:42:28;15.30;70.90
23301;DHT22;11819;51.394;12.340;2023-01-01T11:45:10;15.30;70.70
23301;DHT22;11819;51.394;12.340;2023-01-01T11:47:41;15.40;70.70
23301;DHT22;11819;51.394;12.340;2023-01-01T11:52:52;15.40;70.60
23301;DHT22;11819;51.394;12.340;2023-01-01T11:55:40;15.50;70.80
23301;DHT22;11819;51.394;12.340;2023-01-01T12:01:56;15.50;70.70
23301;DHT22;11819;51.394;12.340;2023-01-01T12:06:35;15.50;70.50
23301;DHT22;11819;51.394;12.340;2023-01-01T12:09:12;15.60;70.30
23301;DHT22;11819;51.394;12.340;2023-01-01T12:11:52;15.60;70.40
23301;DHT22;11819;51.394;12.340;2023-01-01T12:17:04;15.60;70.00
23301;DHT22;11819;51.394;12.340;2023-01-01T12:22:29;15.70;70.20
23301;DHT22;11819;51.394;12.340;2023-01-01T12:24:56;15.70;70.10
23301;DHT22;11819;51.394;12.340;2023-01-01T12:36:09;15.60;70.40
23301;DHT22;11819;51.394;12.340;2023-01-01T12:50:18;15.70;70.50
23301;DHT22;11819;51.394;12.340;2023-01-01T12:55:57;15.70;70.70
23301;DHT22;11819;51.394;12.340;2023-01-01T12:58:25;15.70;70.70
23301;DHT22;11819;51.394;12.340;2023-01-01T13:01:11;15.60;70.70
23301;DHT22;11819;51.394;12.340;2023-01-01T13:03:51;15.60;71.00
23301;DHT22;11819;51.394;12.340;2023-01-01T13:06:23;15.60;71.10
23301;DHT22;11819;51.394;12.340;2023-01-01T13:08:58;15.60;71.00
23301;DHT22;11819;51.394;12.340;2023-01-01T13:11:26;15.70;71.20
23301;DHT22;11819;51.394;12.340;2023-01-01T13:13:52;15.70;71.20
23301;DHT22;11819;51.394;12.340;2023-01-01T13:16:34;15.70;71.30
23301;DHT22;11819;51.394;12.340;2023-01-01T13:19:04;15.60;71.30
23301;DHT22;11819;51.394;12.340;2023-01-01T13:21:30;15.70;71.50
23301;DHT22;11819;51.394;12.340;2023-01-01T13:24:02;15.70;71.60
23301;DHT22;11819;51.394;12.340;2023-01-01T13:26:32;15.60;71.70
23301;DHT22;11819;51.394;12.340;2023-01-01T13:31:59;15.60;72.00
23301;DHT22;11819;51.394;12.340;2023-01-01T13:34:58;15.60;72.10
23301;DHT22;11819;51.394;12.340;2023-01-01T13:37:29;15.60;72.30
23301;DHT22;11819;51.394;12.340;2023-01-01T13:40:03;15.60;72.50
23301;DHT22;11819;51.394;12.340;2023-01-01T13:43:03;15.60;72.70
23301;DHT22;11819;51.394;12.340;2023-01-01T13:45:44;15.60;72.80
23301;DHT22;11819;51.394;12.340;2023-01-01T13:48:53;15.50;73.00
23301;DHT22;11819;51.394;12.340;2023-01-01T14:04:47;15.40;73.50
23301;DHT22;11819;51.394;12.340;2023-01-01T14:07:31;15.40;73.50
23301;DHT22;11819;51.394;12.340;2023-01-01T14:13:15;15.40;74.60
23301;DHT22;11819;51.394;12.340;2023-01-01T14:18:18;15.40;74.00
23301;DHT22;11819;51.394;12.340;2023-01-01T14:20:48;15.30;73.90
23301;DHT22;11819;51.394;12.340;2023-01-01T14:23:19;15.30;73.50
23301;DHT22;11819;51.394;12.340;2023-01-01T14:25:48;15.30;73.10
23301;DHT22;11819;51.394;12.340;2023-01-01T14:28:31;15.40;73.20
23301;DHT22;11819;51.394;12.340;2023-01-01T14:30:59;15.30;73.10
23301;DHT22;11819;51.394;12.340;2023-01-01T14:33:27;15.30;73.20
23301;DHT22;11819;51.394;12.340;2023-01-01T14:35:58;15.30;73.30
23301;DHT22;11819;51.394;12.340;2023-01-01T14:38:25;15.30;73.30
23301;DHT22;11819;51.394;12.340;2023-01-01T14:43:41;15.30;73.10
23301;DHT22;11819;51.394;12.340;2023-01-01T14:46:15;15.30;73.10
23301;DHT22;11819;51.394;12.340;2023-01-01T14:48:46;15.20;72.90
23301;DHT22;11819;51.394;12.340;2023-01-01T14:51:33;15.20;72.90
23301;DHT22;11819;51.394;12.340;2023-01-01T14:54:01;15.20;72.90
23301;DHT22;11819;51.394;12.340;2023-01-01T14:56:28;15.20;72.90
23301;DHT22;11819;51.394;12.340;2023-01-01T14:59:16;15.20;72.90
23301;DHT22;11819;51.394;12.340;2023-01-01T15:01:45;15.20;72.80
23301;DHT22;11819;51.394;12.340;2023-01-01T15:04:22;15.20;72.80
23301;DHT22;11819;51.394;12.340;2023-01-01T15:06:58;15.20;72.70
23301;DHT22;11819;51.394;12.340;2023-01-01T15:09:26;15.20;72.70
23301;DHT22;11819;51.394;12.340;2023-01-01T15:11:53;15.20;72.60
23301;DHT22;11819;51.394;12.340;2023-01-01T15:17:05;15.20;72.60
23301;DHT22;11819;51.394;12.340;2023-01-01T15:19:31;15.20;72.50
23301;DHT22;11819;51.394;12.340;2023-01-01T15:21:59;15.20;72.50
23301;DHT22;11819;51.394;12.340;2023-01-01T15:24:26;15.20;72.40
23301;DHT22;11819;51.394;12.340;2023-01-01T15:26:58;15.10;72.40
23301;DHT22;11819;51.394;12.340;2023-01-01T15:29:38;15.20;72.50
23301;DHT22;11819;51.394;12.340;2023-01-01T15:32:13;15.20;72.50
23301;DHT22;11819;51.394;12.340;2023-01-01T15:34:50;15.20;72.70
23301;DHT22;11819;51.394;12.340;2023-01-01T15:37:21;15.10;72.60
23301;DHT22;11819;51.394;12.340;2023-01-01T15:39:52;15.10;72.80
23301;DHT22;11819;51.394;12.340;2023-01-01T15:44:48;15.10;72.90
23301;DHT22;11819;51.394;12.340;2023-01-01T15:47:15;15.00;73.00
23301;DHT22;11819;51.394;12.340;2023-01-01T15:49:41;15.00;73.00
23301;DHT22;11819;51.394;12.340;2023-01-01T15:52:22;15.00;73.10
23301;DHT22;11819;51.394;12.340;2023-01-01T15:54:49;15.00;73.20
23301;DHT22;11819;51.394;12.340;2023-01-01T15:57:19;15.00;73.30
23301;DHT22;11819;51.394;12.340;2023-01-01T15:59:46;15.00;73.40
23301;DHT22;11819;51.394;12.340;2023-01-01T16:02:19;14.90;73.50
23301;DHT22;11819;51.394;12.340;2023-01-01T16:04:47;14.90;73.50
23301;DHT22;11819;51.394;12.340;2023-01-01T16:07:22;14.90;73.50
23301;DHT22;11819;51.394;12.340;2023-01-01T16:09:52;14.90;73.60
23301;DHT22;11819;51.394;12.340;2023-01-01T16:12:18;14.90;73.60
23301;DHT22;11819;51.394;12.340;2023-01-01T16:14:44;14.90;73.60
23301;DHT22;11819;51.394;12.340;2023-01-01T16:17:15;14.80;73.60
23301;DHT22;11819;51.394;12.340;2023-01-01T16:19:43;14.80;73.50
23301;DHT22;11819;51.394;12.340;2023-01-01T16:22:12;14.80;73.50
23301;DHT22;11819;51.394;12.340;2023-01-01T16:24:38;14.80;73.50
23301;DHT22;11819;51.394;12.340;2023-01-01T16:27:04;14.80;73.40
23301;DHT22;11819;51.394;12.340;2023-01-01T16:29:30;14.80;73.20
23301;DHT22;11819;51.394;12.340;2023-01-01T16:31:55;14.80;73.00
23301;DHT22;11819;51.394;12.340;2023-01-01T16:34:22;14.80;72.80
23301;DHT22;11819;51.394;12.340;2023-01-01T16:36:54;14.80;72.70
23301;DHT22;11819;51.394;12.340;2023-01-01T16:39:20;14.80;72.80
23301;DHT22;11819;51.394;12.340;2023-01-01T16:41:45;14.80;72.80
23301;DHT22;11819;51.394;12.340;2023-01-01T16:44:15;14.80;72.60
23301;DHT22;11819;51.394;12.340;2023-01-01T16:46:41;14.80;72.70
23301;DHT22;11819;51.394;12.340;2023-01-01T16:49:07;14.80;72.60
23301;DHT22;11819;51.394;12.340;2023-01-01T16:51:33;14.80;72.60
23301;DHT22;11819;51.394;12.340;2023-01-01T16:53:59;14.80;72.50
23301;DHT22;11819;51.394;12.340;2023-01-01T16:56:27;14.70;72.50
23301;DHT22;11819;51.394;12.340;2023-01-01T16:58:53;14.70;72.50
23301;DHT22;11819;51.394;12.340;2023-01-01T17:01:21;14.70;72.40
23301;DHT22;11819;51.394;12.340;2023-01-01T17:03:48;14.70;72.40
23301;DHT22;11819;51.394;12.340;2023-01-01T17:06:14;14.70;72.40
23301;DHT22;11819;51.394;12.340;2023-01-01T17:08:40;14.70;72.50
23301;DHT22;11819;51.394;12.340;2023-01-01T17:11:16;14.70;72.70
23301;DHT22;11819;51.394;12.340;2023-01-01T17:13:44;14.60;72.90
23301;DHT22;11819;51.394;12.340;2023-01-01T17:16:10;14.60;73.30
23301;DHT22;11819;51.394;12.340;2023-01-01T17:18:37;14.50;74.50
23301;DHT22;11819;51.394;12.340;2023-01-01T17:21:08;14.50;74.00